sensor_id;sensor_type;location;lat;lon;timestamp;P1;durP1;ratioP1;P2;durP2;ratioP2
45764;SDS011;31474;45.332;10.230;2023-07-13T00:01:48;7.50;;;2.50;;
45764;SDS011;31474;45.332;10.230;2023-07-13T00:04:18;2.63;;;1.30;;
45764;SDS011;31474;45.332;10.230;2023-07-13T00:06:46;3.25;;;2.00;;
45764;SDS011;31474;45.332;10.230;2023-07-13T00:09:12;4.75;;;1.50;;
45764;SDS011;31474;45.332;10.230;2023-07-13T00:11:40;4.20;;;1.95;;
45764;SDS011;31474;45.332;10.230;2023-07-13T00:14:06;7.55;;;1.77;;
45764;SDS011;31474;45.332;10.230;2023-07-13T00:16:33;2.75;;;1.60;;
45764;SDS011;31474;45.332;10.230;2023-07-13T00:19:00;3.35;;;1.80;;
45764;SDS011;31474;45.332;10.230;2023-07-13T00:21:26;4.18;;;1.70;;
45764;SDS011;31474;45.332;10.230;2023-07-13T00:23:51;4.57;;;2.00;;
45764;SDS011;31474;45.332;10.230;2023-07-13T00:26:17;3.70;;;1.55;;
45764;SDS011;31474;45.332;10.230;2023-07-13T00:28:43;5.35;;;1.60;;
45764;SDS011;31474;45.332;10.230;2023-07-13T00:31:09;3.58;;;1.80;;
45764;SDS011;31474;45.332;10.230;2023-07-13T00:33:36;2.88;;;1.83;;
45764;SDS011;31474;45.332;10.230;2023-07-13T00:36:02;5.57;;;1.23;;
45764;SDS011;31474;45.332;10.230;2023-07-13T00:38:28;4.45;;;1.45;;
45764;SDS011;31474;45.332;10.230;2023-07-13T00:40:54;4.70;;;1.40;;
45764;SDS011;31474;45.332;10.230;2023-07-13T00:43:21;3.85;;;1.63;;
45764;SDS011;31474;45.332;10.230;2023-07-13T00:48:15;3.70;;;1.52;;
45764;SDS011;31474;45.332;10.230;2023-07-13T00:50:46;5.03;;;1.30;;
45764;SDS011;31474;45.332;10.230;2023-07-13T00:53:15;2.97;;;1.42;;
45764;SDS011;31474;45.332;10.230;2023-07-13T00:55:41;3.25;;;1.02;;
45764;SDS011;31474;45.332;10.230;2023-07-13T00:58:07;6.82;;;1.70;;
45764;SDS011;31474;45.332;10.230;2023-07-13T01:00:33;4.43;;;1.60;;
45764;SDS011;31474;45.332;10.230;2023-07-13T01:03:01;2.88;;;1.48;;
45764;SDS011;31474;45.332;10.230;2023-07-13T01:05:29;3.20;;;1.52;;
45764;SDS011;31474;45.332;10.230;2023-07-13T01:07:57;4.25;;;1.65;;
45764;SDS011;31474;45.332;10.230;2023-07-13T01:10:24;3.50;;;1.40;;
45764;SDS011;31474;45.332;10.230;2023-07-13T01:12:51;2.72;;;1.55;;
45764;SDS011;31474;45.332;10.230;2023-07-13T01:18:03;3.83;;;1.58;;
45764;SDS011;31474;45.332;10.230;2023-07-13T01:20:34;3.00;;;1.40;;
45764;SDS011;31474;45.332;10.230;2023-07-13T01:23:01;3.95;;;1.80;;
45764;SDS011;31474;45.332;10.230;2023-07-13T01:25:31;2.90;;;1.60;;
45764;SDS011;31474;45.332;10.230;2023-07-13T01:27:57;3.95;;;1.77;;
45764;SDS011;31474;45.332;10.230;2023-07-13T01:30:23;2.70;;;1.50;;
45764;SDS011;31474;45.332;10.230;2023-07-13T01:32:48;3.10;;;1.40;;
45764;SDS011;31474;45.332;10.230;2023-07-13T01:35:15;3.85;;;1.48;;
45764;SDS011;31474;45.332;10.230;2023-07-13T01:37:41;2.42;;;1.67;;
45764;SDS011;31474;45.332;10.230;2023-07-13T01:40:09;4.45;;;1.60;;
45764;SDS011;31474;45.332;10.230;2023-07-13T01:42:36;1.73;;;1.42;;
45764;SDS011;31474;45.332;10.230;2023-07-13T01:45:02;2.05;;;1.70;;
45764;SDS011;31474;45.332;10.230;2023-07-13T01:47:28;3.72;;;1.45;;
45764;SDS011;31474;45.332;10.230;2023-07-13T01:49:55;5.53;;;1.60;;
45764;SDS011;31474;45.332;10.230;2023-07-13T01:52:21;4.13;;;1.88;;
45764;SDS011;31474;45.332;10.230;2023-07-13T01:54:47;4.68;;;1.42;;
45764;SDS011;31474;45.332;10.230;2023-07-13T01:57:13;2.05;;;1.63;;
45764;SDS011;31474;45.332;10.230;2023-07-13T01:59:38;4.72;;;1.90;;
45764;SDS011;31474;45.332;10.230;2023-07-13T02:02:04;4.22;;;2.15;;
45764;SDS011;31474;45.332;10.230;2023-07-13T02:04:30;3.42;;;1.50;;
45764;SDS011;31474;45.332;10.230;2023-07-13T02:06:55;3.47;;;1.98;;
45764;SDS011;31474;45.332;10.230;2023-07-13T02:09:21;3.92;;;2.15;;
45764;SDS011;31474;45.332;10.230;2023-07-13T02:11:47;2.78;;;2.00;;
45764;SDS011;31474;45.332;10.230;2023-07-13T02:14:13;2.70;;;1.90;;
45764;SDS011;31474;45.332;10.230;2023-07-13T02:16:40;2.38;;;1.70;;
45764;SDS011;31474;45.332;10.230;2023-07-13T02:19:06;4.63;;;2.38;;
45764;SDS011;31474;45.332;10.230;2023-07-13T02:21:32;5.50;;;2.72;;
45764;SDS011;31474;45.332;10.230;2023-07-13T02:23:58;4.93;;;2.40;;
45764;SDS011;31474;45.332;10.230;2023-07-13T02:26:25;4.20;;;2.17;;
45764;SDS011;31474;45.332;10.230;2023-07-13T02:28:51;9.95;;;2.70;;
45764;SDS011;31474;45.332;10.230;2023-07-13T02:31:17;2.83;;;2.15;;
45764;SDS011;31474;45.332;10.230;2023-07-13T02:33:43;3.08;;;2.05;;
45764;SDS011;31474;45.332;10.230;2023-07-13T02:36:09;5.25;;;2.70;;
45764;SDS011;31474;45.332;10.230;2023-07-13T02:38:35;3.60;;;2.53;;
45764;SDS011;31474;45.332;10.230;2023-07-13T02:41:01;7.50;;;2.78;;
45764;SDS011;31474;45.332;10.230;2023-07-13T02:43:28;5.22;;;3.30;;
45764;SDS011;31474;45.332;10.230;2023-07-13T02:45:54;7.35;;;2.67;;
45764;SDS011;31474;45.332;10.230;2023-07-13T02:48:20;6.20;;;3.00;;
45764;SDS011;31474;45.332;10.230;2023-07-13T02:50:46;5.20;;;2.90;;
45764;SDS011;31474;45.332;10.230;2023-07-13T02:53:11;5.75;;;3.25;;
45764;SDS011;31474;45.332;10.230;2023-07-13T02:55:37;4.03;;;2.45;;
45764;SDS011;31474;45.332;10.230;2023-07-13T02:58:03;5.80;;;3.70;;
45764;SDS011;31474;45.332;10.230;2023-07-13T03:00:29;5.22;;;2.80;;
45764;SDS011;31474;45.332;10.230;2023-07-13T03:02:54;5.40;;;3.35;;
45764;SDS011;31474;45.332;10.230;2023-07-13T03:05:22;6.95;;;3.25;;
45764;SDS011;31474;45.332;10.230;2023-07-13T03:07:49;5.72;;;4.43;;
45764;SDS011;31474;45.332;10.230;2023-07-13T03:10:14;8.02;;;4.65;;
45764;SDS011;31474;45.332;10.230;2023-07-13T03:12:41;8.45;;;5.18;;
45764;SDS011;31474;45.332;10.230;2023-07-13T03:15:07;9.43;;;5.93;;
45764;SDS011;31474;45.332;10.230;2023-07-13T03:17:33;11.10;;;6.07;;
45764;SDS011;31474;45.332;10.230;2023-07-13T03:19:58;8.23;;;5.35;;
45764;SDS011;31474;45.332;10.230;2023-07-13T03:22:24;6.32;;;4.85;;
45764;SDS011;31474;45.332;10.230;2023-07-13T03:24:49;8.10;;;4.70;;
45764;SDS011;31474;45.332;10.230;2023-07-13T03:27:16;8.38;;;4.57;;
45764;SDS011;31474;45.332;10.230;2023-07-13T03:29:42;6.68;;;4.88;;
45764;SDS011;31474;45.332;10.230;2023-07-13T03:32:08;9.85;;;4.63;;
45764;SDS011;31474;45.332;10.230;2023-07-13T03:34:34;7.28;;;4.07;;
45764;SDS011;31474;45.332;10.230;2023-07-13T03:37:00;7.47;;;4.30;;
45764;SDS011;31474;45.332;10.230;2023-07-13T03:39:25;6.90;;;4.07;;
45764;SDS011;31474;45.332;10.230;2023-07-13T03:41:51;7.25;;;4.75;;
45764;SDS011;31474;45.332;10.230;2023-07-13T03:44:18;5.28;;;4.15;;
45764;SDS011;31474;45.332;10.230;2023-07-13T03:46:44;7.28;;;4.50;;
45764;SDS011;31474;45.332;10.230;2023-07-13T03:49:10;12.38;;;5.07;;
45764;SDS011;31474;45.332;10.230;2023-07-13T03:51:36;7.82;;;4.45;;
45764;SDS011;31474;45.332;10.230;2023-07-13T03:54:01;8.98;;;4.65;;
45764;SDS011;31474;45.332;10.230;2023-07-13T03:56:28;8.65;;;4.55;;
45764;SDS011;31474;45.332;10.230;2023-07-13T03:58:55;7.18;;;4.40;;
45764;SDS011;31474;45.332;10.230;2023-07-13T04:01:22;6.30;;;4.20;;
45764;SDS011;31474;45.332;10.230;2023-07-13T04:03:48;5.95;;;3.72;;
45764;SDS011;31474;45.332;10.230;2023-07-13T04:06:18;8.07;;;4.05;;
45764;SDS011;31474;45.332;10.230;2023-07-13T04:08:53;12.73;;;4.72;;
45764;SDS011;31474;45.332;10.230;2023-07-13T04:11:21;8.32;;;4.25;;
45764;SDS011;31474;45.332;10.230;2023-07-13T04:13:48;10.70;;;4.47;;
45764;SDS011;31474;45.332;10.230;2023-07-13T04:16:15;6.88;;;4.25;;
45764;SDS011;31474;45.332;10.230;2023-07-13T04:18:41;7.70;;;5.05;;
45764;SDS011;31474;45.332;10.230;2023-07-13T04:21:07;9.27;;;4.65;;
45764;SDS011;31474;45.332;10.230;2023-07-13T04:23:36;9.00;;;4.40;;
45764;SDS011;31474;45.332;10.230;2023-07-13T04:26:03;5.50;;;4.38;;
45764;SDS011;31474;45.332;10.230;2023-07-13T04:28:29;8.38;;;4.45;;
45764;SDS011;31474;45.332;10.230;2023-07-13T04:30:55;5.30;;;4.13;;
45764;SDS011;31474;45.332;10.230;2023-07-13T04:33:21;10.55;;;5.20;;
45764;SDS011;31474;45.332;10.230;2023-07-13T04:35:48;7.53;;;4.32;;
45764;SDS011;31474;45.332;10.230;2023-07-13T04:38:15;10.35;;;4.82;;
45764;SDS011;31474;45.332;10.230;2023-07-13T04:40:50;7.97;;;4.63;;
45764;SDS011;31474;45.332;10.230;2023-07-13T04:43:17;5.20;;;4.65;;
45764;SDS011;31474;45.332;10.230;2023-07-13T04:45:43;24.08;;;6.10;;
45764;SDS011;31474;45.332;10.230;2023-07-13T04:48:08;9.75;;;5.65;;
45764;SDS011;31474;45.332;10.230;2023-07-13T04:50:37;7.45;;;4.93;;
45764;SDS011;31474;45.332;10.230;2023-07-13T04:53:03;8.88;;;5.20;;
45764;SDS011;31474;45.332;10.230;2023-07-13T04:55:29;7.93;;;5.55;;
45764;SDS011;31474;45.332;10.230;2023-07-13T04:57:55;6.90;;;5.82;;
45764;SDS011;31474;45.332;10.230;2023-07-13T05:00:21;6.32;;;4.97;;
45764;SDS011;31474;45.332;10.230;2023-07-13T05:02:47;7.85;;;5.65;;
45764;SDS011;31474;45.332;10.230;2023-07-13T05:05:12;7.40;;;4.70;;
45764;SDS011;31474;45.332;10.230;2023-07-13T05:07:38;6.88;;;4.85;;
45764;SDS011;31474;45.332;10.230;2023-07-13T05:10:04;9.73;;;5.22;;
45764;SDS011;31474;45.332;10.230;2023-07-13T05:12:30;9.27;;;4.68;;
45764;SDS011;31474;45.332;10.230;2023-07-13T05:14:56;8.82;;;5.00;;
45764;SDS011;31474;45.332;10.230;2023-07-13T05:17:22;6.38;;;4.57;;
45764;SDS011;31474;45.332;10.230;2023-07-13T05:19:47;9.77;;;4.97;;
45764;SDS011;31474;45.332;10.230;2023-07-13T05:22:13;12.23;;;4.30;;
45764;SDS011;31474;45.332;10.230;2023-07-13T05:24:38;6.30;;;4.35;;
45764;SDS011;31474;45.332;10.230;2023-07-13T05:27:04;8.52;;;3.70;;
45764;SDS011;31474;45.332;10.230;2023-07-13T05:29:30;8.15;;;4.43;;
45764;SDS011;31474;45.332;10.230;2023-07-13T05:31:56;7.75;;;4.65;;
45764;SDS011;31474;45.332;10.230;2023-07-13T05:34:21;6.88;;;5.03;;
45764;SDS011;31474;45.332;10.230;2023-07-13T05:36:47;6.65;;;4.97;;
45764;SDS011;31474;45.332;10.230;2023-07-13T05:39:14;6.60;;;4.47;;
45764;SDS011;31474;45.332;10.230;2023-07-13T05:41:39;7.75;;;4.55;;
45764;SDS011;31474;45.332;10.230;2023-07-13T05:44:05;8.90;;;5.28;;
45764;SDS011;31474;45.332;10.230;2023-07-13T05:46:31;9.90;;;4.55;;
45764;SDS011;31474;45.332;10.230;2023-07-13T05:48:56;6.30;;;3.83;;
45764;SDS011;31474;45.332;10.230;2023-07-13T05:51:22;4.40;;;3.28;;
45764;SDS011;31474;45.332;10.230;2023-07-13T05:53:48;6.68;;;3.58;;
45764;SDS011;31474;45.332;10.230;2023-07-13T05:56:13;8.00;;;4.50;;
45764;SDS011;31474;45.332;10.230;2023-07-13T05:58:39;8.93;;;4.75;;
45764;SDS011;31474;45.332;10.230;2023-07-13T06:01:06;7.53;;;4.45;;
45764;SDS011;31474;45.332;10.230;2023-07-13T06:03:34;6.72;;;4.45;;
45764;SDS011;31474;45.332;10.230;2023-07-13T06:06:00;8.68;;;4.15;;
45764;SDS011;31474;45.332;10.230;2023-07-13T06:08:26;7.93;;;3.90;;
45764;SDS011;31474;45.332;10.230;2023-07-13T06:10:53;6.60;;;3.92;;
45764;SDS011;31474;45.332;10.230;2023-07-13T06:13:19;6.65;;;4.10;;
45764;SDS011;31474;45.332;10.230;2023-07-13T06:15:48;8.18;;;3.70;;
45764;SDS011;31474;45.332;10.230;2023-07-13T06:18:14;5.88;;;3.95;;
45764;SDS011;31474;45.332;10.230;2023-07-13T06:20:40;5.95;;;4.70;;
45764;SDS011;31474;45.332;10.230;2023-07-13T06:23:06;7.65;;;5.35;;
45764;SDS011;31474;45.332;10.230;2023-07-13T06:25:31;10.88;;;5.05;;
45764;SDS011;31474;45.332;10.230;2023-07-13T06:27:57;9.48;;;5.63;;
45764;SDS011;31474;45.332;10.230;2023-07-13T06:30:23;7.18;;;5.30;;
45764;SDS011;31474;45.332;10.230;2023-07-13T06:32:49;7.78;;;5.82;;
45764;SDS011;31474;45.332;10.230;2023-07-13T06:35:14;6.97;;;5.32;;
45764;SDS011;31474;45.332;10.230;2023-07-13T06:37:40;5.65;;;4.30;;
45764;SDS011;31474;45.332;10.230;2023-07-13T06:40:06;9.38;;;4.35;;
45764;SDS011;31474;45.332;10.230;2023-07-13T06:42:32;7.07;;;4.75;;
45764;SDS011;31474;45.332;10.230;2023-07-13T06:44:58;6.88;;;4.20;;
45764;SDS011;31474;45.332;10.230;2023-07-13T06:47:24;6.45;;;3.97;;
45764;SDS011;31474;45.332;10.230;2023-07-13T06:49:49;7.70;;;4.68;;
45764;SDS011;31474;45.332;10.230;2023-07-13T06:52:15;8.80;;;5.38;;
45764;SDS011;31474;45.332;10.230;2023-07-13T06:54:41;9.90;;;4.70;;
45764;SDS011;31474;45.332;10.230;2023-07-13T06:57:06;7.50;;;4.75;;
45764;SDS011;31474;45.332;10.230;2023-07-13T06:59:32;9.25;;;4.85;;
45764;SDS011;31474;45.332;10.230;2023-07-13T07:01:58;11.98;;;5.38;;
45764;SDS011;31474;45.332;10.230;2023-07-13T07:04:23;13.52;;;5.00;;
45764;SDS011;31474;45.332;10.230;2023-07-13T07:06:49;9.15;;;5.25;;
45764;SDS011;31474;45.332;10.230;2023-07-13T07:09:15;12.82;;;4.78;;
45764;SDS011;31474;45.332;10.230;2023-07-13T07:11:41;11.93;;;5.40;;
45764;SDS011;31474;45.332;10.230;2023-07-13T07:14:07;10.00;;;4.70;;
45764;SDS011;31474;45.332;10.230;2023-07-13T07:16:33;11.80;;;5.53;;
45764;SDS011;31474;45.332;10.230;2023-07-13T07:18:59;7.55;;;4.85;;
45764;SDS011;31474;45.332;10.230;2023-07-13T07:21:25;7.80;;;4.75;;
45764;SDS011;31474;45.332;10.230;2023-07-13T07:23:51;9.82;;;3.88;;
45764;SDS011;31474;45.332;10.230;2023-07-13T07:26:17;9.55;;;4.07;;
45764;SDS011;31474;45.332;10.230;2023-07-13T07:28:43;6.50;;;3.92;;
45764;SDS011;31474;45.332;10.230;2023-07-13T07:31:09;4.78;;;3.42;;
45764;SDS011;31474;45.332;10.230;2023-07-13T07:33:35;5.85;;;3.28;;
45764;SDS011;31474;45.332;10.230;2023-07-13T07:36:01;4.75;;;2.58;;
45764;SDS011;31474;45.332;10.230;2023-07-13T07:38:26;5.90;;;2.30;;
45764;SDS011;31474;45.332;10.230;2023-07-13T07:40:52;3.13;;;2.30;;
45764;SDS011;31474;45.332;10.230;2023-07-13T07:43:18;3.90;;;2.08;;
45764;SDS011;31474;45.332;10.230;2023-07-13T07:45:44;3.97;;;2.30;;
45764;SDS011;31474;45.332;10.230;2023-07-13T07:48:11;3.50;;;1.98;;
45764;SDS011;31474;45.332;10.230;2023-07-13T07:50:37;7.13;;;2.22;;
45764;SDS011;31474;45.332;10.230;2023-07-13T07:53:04;7.18;;;2.67;;
45764;SDS011;31474;45.332;10.230;2023-07-13T07:55:32;6.47;;;2.63;;
45764;SDS011;31474;45.332;10.230;2023-07-13T07:58:00;4.15;;;2.83;;
45764;SDS011;31474;45.332;10.230;2023-07-13T08:00:26;5.05;;;3.13;;
45764;SDS011;31474;45.332;10.230;2023-07-13T08:02:53;5.47;;;2.22;;
45764;SDS011;31474;45.332;10.230;2023-07-13T08:05:18;6.63;;;2.95;;
45764;SDS011;31474;45.332;10.230;2023-07-13T08:07:44;6.97;;;2.72;;
45764;SDS011;31474;45.332;10.230;2023-07-13T08:10:10;6.57;;;2.53;;
45764;SDS011;31474;45.332;10.230;2023-07-13T08:12:36;6.15;;;2.80;;
45764;SDS011;31474;45.332;10.230;2023-07-13T08:15:03;7.22;;;2.67;;
45764;SDS011;31474;45.332;10.230;2023-07-13T08:17:29;5.90;;;2.55;;
45764;SDS011;31474;45.332;10.230;2023-07-13T08:19:55;5.68;;;2.95;;
45764;SDS011;31474;45.332;10.230;2023-07-13T08:22:21;5.40;;;2.55;;
45764;SDS011;31474;45.332;10.230;2023-07-13T08:24:47;6.00;;;2.42;;
45764;SDS011;31474;45.332;10.230;2023-07-13T08:27:20;6.68;;;2.65;;
45764;SDS011;31474;45.332;10.230;2023-07-13T08:29:47;3.55;;;2.80;;
45764;SDS011;31474;45.332;10.230;2023-07-13T08:32:13;11.35;;;2.78;;
45764;SDS011;31474;45.332;10.230;2023-07-13T08:34:39;5.15;;;2.42;;
45764;SDS011;31474;45.332;10.230;2023-07-13T08:37:05;4.72;;;2.70;;
45764;SDS011;31474;45.332;10.230;2023-07-13T08:39:31;8.55;;;2.30;;
45764;SDS011;31474;45.332;10.230;2023-07-13T08:42:32;9.07;;;2.45;;
45764;SDS011;31474;45.332;10.230;2023-07-13T08:47:59;3.38;;;2.28;;
45764;SDS011;31474;45.332;10.230;2023-07-13T08:50:30;11.32;;;2.40;;
45764;SDS011;31474;45.332;10.230;2023-07-13T08:53:01;4.93;;;2.50;;
45764;SDS011;31474;45.332;10.230;2023-07-13T08:55:33;7.82;;;2.70;;
45764;SDS011;31474;45.332;10.230;2023-07-13T08:58:09;7.00;;;2.40;;
45764;SDS011;31474;45.332;10.230;2023-07-13T09:00:48;7.32;;;2.63;;
45764;SDS011;31474;45.332;10.230;2023-07-13T09:03:19;5.32;;;2.75;;
45764;SDS011;31474;45.332;10.230;2023-07-13T09:05:53;3.35;;;2.80;;
45764;SDS011;31474;45.332;10.230;2023-07-13T09:10:59;6.07;;;1.98;;
45764;SDS011;31474;45.332;10.230;2023-07-13T09:16:13;5.07;;;2.45;;
45764;SDS011;31474;45.332;10.230;2023-07-13T09:18:41;5.07;;;2.58;;
45764;SDS011;31474;45.332;10.230;2023-07-13T09:21:15;3.85;;;2.05;;
45764;SDS011;31474;45.332;10.230;2023-07-13T09:23:43;2.97;;;2.00;;
45764;SDS011;31474;45.332;10.230;2023-07-13T09:29:27;6.28;;;2.35;;
45764;SDS011;31474;45.332;10.230;2023-07-13T09:31:52;4.80;;;2.03;;
45764;SDS011;31474;45.332;10.230;2023-07-13T09:34:20;5.13;;;2.78;;
45764;SDS011;31474;45.332;10.230;2023-07-13T09:36:46;2.88;;;2.28;;
45764;SDS011;31474;45.332;10.230;2023-07-13T09:39:15;5.68;;;2.00;;
45764;SDS011;31474;45.332;10.230;2023-07-13T09:42:07;7.47;;;2.17;;
45764;SDS011;31474;45.332;10.230;2023-07-13T09:44:39;2.75;;;1.75;;
45764;SDS011;31474;45.332;10.230;2023-07-13T09:47:27;3.85;;;2.45;;
45764;SDS011;31474;45.332;10.230;2023-07-13T09:49:56;5.47;;;2.58;;
45764;SDS011;31474;45.332;10.230;2023-07-13T09:52:23;4.68;;;2.20;;
45764;SDS011;31474;45.332;10.230;2023-07-13T09:54:51;3.85;;;1.77;;
45764;SDS011;31474;45.332;10.230;2023-07-13T09:57:23;6.25;;;1.70;;
45764;SDS011;31474;45.332;10.230;2023-07-13T09:59:51;3.30;;;1.75;;
45764;SDS011;31474;45.332;10.230;2023-07-13T10:02:34;3.67;;;1.58;;
45764;SDS011;31474;45.332;10.230;2023-07-13T10:05:02;7.30;;;2.40;;
45764;SDS011;31474;45.332;10.230;2023-07-13T10:07:37;6.63;;;2.40;;
45764;SDS011;31474;45.332;10.230;2023-07-13T10:10:12;4.45;;;2.80;;
45764;SDS011;31474;45.332;10.230;2023-07-13T10:12:39;6.45;;;2.30;;
45764;SDS011;31474;45.332;10.230;2023-07-13T10:15:06;6.43;;;2.85;;
45764;SDS011;31474;45.332;10.230;2023-07-13T10:17:40;5.03;;;2.33;;
45764;SDS011;31474;45.332;10.230;2023-07-13T10:20:07;4.95;;;2.97;;
45764;SDS011;31474;45.332;10.230;2023-07-13T10:22:41;6.88;;;2.60;;
45764;SDS011;31474;45.332;10.230;2023-07-13T10:25:26;5.70;;;3.40;;
45764;SDS011;31474;45.332;10.230;2023-07-13T10:28:02;5.22;;;3.15;;
45764;SDS011;31474;45.332;10.230;2023-07-13T10:30:50;4.97;;;3.10;;
45764;SDS011;31474;45.332;10.230;2023-07-13T10:33:18;4.72;;;3.58;;
45764;SDS011;31474;45.332;10.230;2023-07-13T10:35:45;4.80;;;3.28;;
45764;SDS011;31474;45.332;10.230;2023-07-13T10:38:14;5.80;;;3.35;;
45764;SDS011;31474;45.332;10.230;2023-07-13T10:40:48;9.07;;;3.72;;
45764;SDS011;31474;45.332;10.230;2023-07-13T10:43:28;6.07;;;3.42;;
45764;SDS011;31474;45.332;10.230;2023-07-13T10:46:02;5.50;;;3.78;;
45764;SDS011;31474;45.332;10.230;2023-07-13T10:48:30;7.03;;;3.97;;
45764;SDS011;31474;45.332;10.230;2023-07-13T10:50:59;9.27;;;4.28;;
45764;SDS011;31474;45.332;10.230;2023-07-13T10:53:29;6.18;;;3.25;;
45764;SDS011;31474;45.332;10.230;2023-07-13T11:01:06;4.30;;;2.88;;
45764;SDS011;31474;45.332;10.230;2023-07-13T11:08:57;3.65;;;2.70;;
45764;SDS011;31474;45.332;10.230;2023-07-13T11:18:48;5.65;;;3.15;;
45764;SDS011;31474;45.332;10.230;2023-07-13T11:22:00;3.85;;;2.70;;
45764;SDS011;31474;45.332;10.230;2023-07-13T11:27:42;5.15;;;2.38;;
45764;SDS011;31474;45.332;10.230;2023-07-13T11:30:59;3.22;;;2.20;;
45764;SDS011;31474;45.332;10.230;2023-07-13T11:33:19;4.90;;;3.08;;
45764;SDS011;31474;45.332;10.230;2023-07-13T11:38:24;2.97;;;2.35;;
45764;SDS011;31474;45.332;10.230;2023-07-13T11:40:53;3.33;;;2.40;;
45764;SDS011;31474;45.332;10.230;2023-07-13T11:43:20;5.30;;;2.65;;
45764;SDS011;31474;45.332;10.230;2023-07-13T11:45:48;5.82;;;2.63;;
45764;SDS011;31474;45.332;10.230;2023-07-13T11:48:23;6.90;;;3.13;;
45764;SDS011;31474;45.332;10.230;2023-07-13T11:51:01;4.38;;;2.08;;
45764;SDS011;31474;45.332;10.230;2023-07-13T11:53:32;3.53;;;1.75;;
45764;SDS011;31474;45.332;10.230;2023-07-13T11:56:05;3.78;;;2.40;;
45764;SDS011;31474;45.332;10.230;2023-07-13T11:58:32;5.45;;;2.08;;
45764;SDS011;31474;45.332;10.230;2023-07-13T12:00:58;6.20;;;2.47;;
45764;SDS011;31474;45.332;10.230;2023-07-13T12:03:29;3.13;;;2.47;;
45764;SDS011;31474;45.332;10.230;2023-07-13T12:08:26;6.78;;;2.88;;
45764;SDS011;31474;45.332;10.230;2023-07-13T12:10:56;4.15;;;2.20;;
45764;SDS011;31474;45.332;10.230;2023-07-13T12:13:24;7.32;;;2.10;;
45764;SDS011;31474;45.332;10.230;2023-07-13T12:15:52;4.10;;;2.15;;
45764;SDS011;31474;45.332;10.230;2023-07-13T12:18:21;4.10;;;2.25;;
45764;SDS011;31474;45.332;10.230;2023-07-13T12:20:49;4.40;;;2.17;;
45764;SDS011;31474;45.332;10.230;2023-07-13T12:23:22;4.85;;;2.92;;
45764;SDS011;31474;45.332;10.230;2023-07-13T12:25:51;7.32;;;3.10;;
45764;SDS011;31474;45.332;10.230;2023-07-13T12:28:21;4.22;;;2.30;;
45764;SDS011;31474;45.332;10.230;2023-07-13T12:30:48;4.15;;;2.63;;
45764;SDS011;31474;45.332;10.230;2023-07-13T12:33:15;3.70;;;2.38;;
45764;SDS011;31474;45.332;10.230;2023-07-13T12:35:44;3.28;;;2.30;;
45764;SDS011;31474;45.332;10.230;2023-07-13T12:38:17;4.95;;;2.78;;
45764;SDS011;31474;45.332;10.230;2023-07-13T12:40:45;5.28;;;2.65;;
45764;SDS011;31474;45.332;10.230;2023-07-13T12:43:15;3.92;;;2.90;;
45764;SDS011;31474;45.332;10.230;2023-07-13T12:48:42;5.30;;;2.90;;
45764;SDS011;31474;45.332;10.230;2023-07-13T12:51:10;8.75;;;4.68;;
45764;SDS011;31474;45.332;10.230;2023-07-13T12:53:39;7.68;;;3.17;;
45764;SDS011;31474;45.332;10.230;2023-07-13T12:56:08;4.28;;;2.67;;
45764;SDS011;31474;45.332;10.230;2023-07-13T12:58:45;5.93;;;3.70;;
45764;SDS011;31474;45.332;10.230;2023-07-13T13:01:13;4.20;;;3.15;;
45764;SDS011;31474;45.332;10.230;2023-07-13T13:03:46;8.18;;;3.15;;
45764;SDS011;31474;45.332;10.230;2023-07-13T13:08:44;6.70;;;3.30;;
45764;SDS011;31474;45.332;10.230;2023-07-13T13:11:11;6.70;;;3.05;;
45764;SDS011;31474;45.332;10.230;2023-07-13T13:13:41;4.13;;;2.33;;
45764;SDS011;31474;45.332;10.230;2023-07-13T13:16:11;4.13;;;2.72;;
45764;SDS011;31474;45.332;10.230;2023-07-13T13:18:40;8.10;;;3.03;;
45764;SDS011;31474;45.332;10.230;2023-07-13T13:21:06;4.15;;;2.60;;
45764;SDS011;31474;45.332;10.230;2023-07-13T13:23:32;5.68;;;2.58;;
45764;SDS011;31474;45.332;10.230;2023-07-13T13:25:58;6.10;;;2.45;;
45764;SDS011;31474;45.332;10.230;2023-07-13T13:28:23;4.00;;;2.90;;
45764;SDS011;31474;45.332;10.230;2023-07-13T13:30:50;6.15;;;3.38;;
45764;SDS011;31474;45.332;10.230;2023-07-13T13:33:16;5.25;;;2.90;;
45764;SDS011;31474;45.332;10.230;2023-07-13T13:35:44;5.32;;;3.10;;
45764;SDS011;31474;45.332;10.230;2023-07-13T13:38:13;5.75;;;3.38;;
45764;SDS011;31474;45.332;10.230;2023-07-13T13:40:45;7.65;;;2.78;;
45764;SDS011;31474;45.332;10.230;2023-07-13T13:43:18;3.35;;;2.13;;
45764;SDS011;31474;45.332;10.230;2023-07-13T13:45:46;4.30;;;2.40;;
45764;SDS011;31474;45.332;10.230;2023-07-13T13:48:16;4.65;;;3.00;;
45764;SDS011;31474;45.332;10.230;2023-07-13T13:50:44;5.90;;;2.92;;
45764;SDS011;31474;45.332;10.230;2023-07-13T13:53:10;5.40;;;3.50;;
45764;SDS011;31474;45.332;10.230;2023-07-13T13:55:37;5.63;;;3.28;;
45764;SDS011;31474;45.332;10.230;2023-07-13T13:58:03;3.88;;;3.17;;
45764;SDS011;31474;45.332;10.230;2023-07-13T14:00:29;7.78;;;3.00;;
45764;SDS011;31474;45.332;10.230;2023-07-13T14:02:55;3.30;;;3.00;;
45764;SDS011;31474;45.332;10.230;2023-07-13T14:05:23;8.32;;;3.08;;
45764;SDS011;31474;45.332;10.230;2023-07-13T14:07:53;3.40;;;2.42;;
45764;SDS011;31474;45.332;10.230;2023-07-13T14:10:20;9.75;;;3.28;;
45764;SDS011;31474;45.332;10.230;2023-07-13T14:12:55;5.93;;;3.88;;
45764;SDS011;31474;45.332;10.230;2023-07-13T14:15:28;7.32;;;3.38;;
45764;SDS011;31474;45.332;10.230;2023-07-13T14:17:58;5.20;;;3.40;;
45764;SDS011;31474;45.332;10.230;2023-07-13T14:20:24;3.25;;;1.75;;
45764;SDS011;31474;45.332;10.230;2023-07-13T14:22:54;7.75;;;2.42;;
45764;SDS011;31474;45.332;10.230;2023-07-13T14:25:20;3.00;;;2.10;;
45764;SDS011;31474;45.332;10.230;2023-07-13T14:27:48;5.13;;;2.05;;
45764;SDS011;31474;45.332;10.230;2023-07-13T14:30:19;4.60;;;2.45;;
45764;SDS011;31474;45.332;10.230;2023-07-13T14:32:47;6.32;;;1.92;;
45764;SDS011;31474;45.332;10.230;2023-07-13T14:35:14;5.90;;;1.98;;
45764;SDS011;31474;45.332;10.230;2023-07-13T14:37:41;6.30;;;1.95;;
45764;SDS011;31474;45.332;10.230;2023-07-13T14:40:15;7.32;;;2.13;;
45764;SDS011;31474;45.332;10.230;2023-07-13T14:42:44;8.82;;;2.75;;
45764;SDS011;31474;45.332;10.230;2023-07-13T14:45:17;4.47;;;2.47;;
45764;SDS011;31474;45.332;10.230;2023-07-13T14:47:43;5.30;;;1.88;;
45764;SDS011;31474;45.332;10.230;2023-07-13T14:50:20;6.90;;;1.95;;
45764;SDS011;31474;45.332;10.230;2023-07-13T14:52:51;3.75;;;1.80;;
45764;SDS011;31474;45.332;10.230;2023-07-13T14:55:17;4.15;;;2.05;;
45764;SDS011;31474;45.332;10.230;2023-07-13T14:57:44;7.55;;;1.75;;
45764;SDS011;31474;45.332;10.230;2023-07-13T15:00:17;3.25;;;1.77;;
45764;SDS011;31474;45.332;10.230;2023-07-13T15:02:53;9.60;;;3.33;;
45764;SDS011;31474;45.332;10.230;2023-07-13T15:05:23;11.10;;;4.03;;
45764;SDS011;31474;45.332;10.230;2023-07-13T15:07:51;4.65;;;3.28;;
45764;SDS011;31474;45.332;10.230;2023-07-13T15:10:22;6.65;;;3.58;;
45764;SDS011;31474;45.332;10.230;2023-07-13T15:12:53;6.75;;;3.17;;
45764;SDS011;31474;45.332;10.230;2023-07-13T15:15:22;4.78;;;2.67;;
45764;SDS011;31474;45.332;10.230;2023-07-13T15:17:48;6.57;;;3.40;;
45764;SDS011;31474;45.332;10.230;2023-07-13T15:20:23;3.63;;;2.25;;
45764;SDS011;31474;45.332;10.230;2023-07-13T15:22:57;7.78;;;2.28;;
45764;SDS011;31474;45.332;10.230;2023-07-13T15:25:24;10.10;;;2.72;;
45764;SDS011;31474;45.332;10.230;2023-07-13T15:27:52;6.22;;;2.90;;